Time;durP1;ratioP1;P1;durP2;ratioP2;P2;SDS_P1;SDS_P2;PMS_P1;PMS_P2;Temp;Humidity;BMP_temperature;BMP_pressure;BME280_temperature;BME280_humidity;BME280_pressure;Samples;Min_cycle;Max_cycle;Signal;HPM_P1;HPM_P2
2022/05/18 00:00:38;;;;;;;13.50;6.72;;;;;;;16.31;84.68;101514.53;5982856;28;20043;-67
2022/05/18 00:03:36;;;;;;;11.73;6.95;;;;;;;16.32;84.13;101510.88;5983118;28;20035;-67
2022/05/18 00:06:31;;;;;;;9.68;6.10;;;;;;;16.29;84.13;101513.03;5981545;28;20098;-66
2022/05/18 00:09:26;;;;;;;10.83;6.80;;;;;;;16.20;84.84;101530.91;5985542;28;20042;-66
2022/05/18 00:12:22;;;;;;;9.37;6.37;;;;;;;16.45;84.01;101529.97;5980558;28;20031;-67
2022/05/18 00:15:19;;;;;;;12.60;7.00;;;;;;;16.50;82.92;101526.81;5989032;28;20432;-66
2022/05/18 00:18:15;;;;;;;9.65;6.18;;;;;;;16.35;83.22;101531.97;5986857;28;20073;-66
2022/05/18 00:21:10;;;;;;;12.00;6.63;;;;;;;16.07;84.39;101527.84;5983112;28;20189;-66
2022/05/18 00:24:06;;;;;;;14.10;7.17;;;;;;;16.06;84.67;101524.34;5989258;28;20031;-66
2022/05/18 00:27:03;;;;;;;11.25;7.15;;;;;;;16.00;85.16;101525.00;5981517;28;20031;-66
2022/05/18 00:29:58;;;;;;;13.18;7.38;;;;;;;16.03;85.29;101530.00;5983645;28;20042;-66
2022/05/18 00:32:54;;;;;;;14.90;7.83;;;;;;;15.93;85.10;101533.81;5987031;28;20046;-66
2022/05/18 00:35:50;;;;;;;12.70;7.25;;;;;;;15.76;85.36;101519.53;5984399;28;20027;-66
2022/05/18 00:38:45;;;;;;;12.93;8.27;;;;;;;15.75;86.19;101535.75;5983297;28;20550;-66
2022/05/18 00:41:40;;;;;;;13.80;7.28;;;;;;;15.74;86.16;101526.03;5981905;28;20043;-66
2022/05/18 00:44:36;;;;;;;13.90;7.72;;;;;;;15.68;85.97;101530.19;5988571;28;20082;-66
2022/05/18 00:47:31;;;;;;;11.83;7.20;;;;;;;15.64;86.17;101530.66;5980839;28;20035;-66
2022/05/18 00:50:34;;;;;;;12.17;7.03;;;;;;;15.67;86.11;101538.38;5981793;28;20039;-67
2022/05/18 00:53:46;;;;;;;12.82;7.30;;;;;;;15.77;85.70;101536.41;5985228;28;20282;-66
2022/05/18 00:56:52;;;;;;;12.20;7.00;;;;;;;15.59;85.87;101528.47;5980097;28;20471;-66
2022/05/18 00:59:55;;;;;;;10.20;7.10;;;;;;;15.57;86.31;101537.66;5984140;28;20549;-66
2022/05/18 01:02:55;;;;;;;11.05;6.88;;;;;;;15.58;86.02;101541.97;5981648;28;20019;-66
2022/05/18 01:05:56;;;;;;;11.98;7.25;;;;;;;15.61;85.68;101545.19;5980728;28;20443;-66
2022/05/18 01:08:57;;;;;;;11.38;7.10;;;;;;;15.44;86.30;101548.72;5981012;28;20380;-66
2022/05/18 01:11:52;;;;;;;12.77;7.60;;;;;;;15.45;86.37;101545.91;5981210;28;20039;-66
2022/05/18 01:14:58;;;;;;;14.40;7.90;;;;;;;15.38;86.88;101554.72;5990746;28;20031;-67
2022/05/18 01:17:58;;;;;;;12.43;7.40;;;;;;;15.39;86.50;101546.53;5983462;28;20039;-66
2022/05/18 01:20:54;;;;;;;13.05;7.50;;;;;;;15.32;86.20;101556.16;5979727;28;20031;-66
2022/05/18 01:23:54;;;;;;;15.73;8.50;;;;;;;15.29;86.85;101556.47;5981514;28;20039;-66
2022/05/18 01:26:50;;;;;;;12.63;7.07;;;;;;;15.33;87.08;101552.47;5982289;28;20054;-66
2022/05/18 01:29:45;;;;;;;14.18;7.47;;;;;;;15.60;84.85;101548.03;5980357;28;20031;-66
2022/05/18 01:32:47;;;;;;;11.37;6.93;;;;;;;15.47;85.70;101554.63;5980844;28;20039;-66
2022/05/18 01:35:46;;;;;;;13.02;6.95;;;;;;;15.28;86.17;101553.94;5981170;28;20362;-66
2022/05/18 01:38:41;;;;;;;13.05;7.25;;;;;;;15.05;87.29;101561.63;5980647;28;20039;-65
2022/05/18 01:41:43;;;;;;;19.17;8.77;;;;;;;15.00;87.62;101555.88;5980345;28;20039;-66
2022/05/18 01:44:39;;;;;;;13.15;7.80;;;;;;;15.08;87.28;101558.66;5979915;28;20110;-66
2022/05/18 01:47:36;;;;;;;12.55;7.07;;;;;;;14.95;87.04;101568.88;5980340;28;20031;-66
2022/05/18 01:50:32;;;;;;;15.75;7.97;;;;;;;14.97;87.44;101558.03;5980092;28;20459;-66
2022/05/18 01:53:27;;;;;;;12.60;7.27;;;;;;;14.99;87.22;101553.38;5980638;28;20037;-67
2022/05/18 01:56:23;;;;;;;13.43;7.10;;;;;;;14.87;87.62;101542.09;5981493;28;20035;-66
2022/05/18 01:59:18;;;;;;;12.90;7.75;;;;;;;14.88;87.13;101559.81;5983315;28;20086;-66
2022/05/18 02:02:14;;;;;;;11.68;7.40;;;;;;;14.89;88.01;101548.13;5982970;28;20038;-67
2022/05/18 02:05:10;;;;;;;15.90;9.32;;;;;;;14.83;88.49;101567.44;5980224;28;20391;-66
2022/05/18 02:08:06;;;;;;;13.10;8.32;;;;;;;14.87;88.17;101563.44;5982106;28;20106;-66
2022/05/18 02:11:01;;;;;;;13.55;8.82;;;;;;;14.79;88.59;101558.03;5979539;29;20039;-66
2022/05/18 02:13:56;;;;;;;16.23;8.90;;;;;;;14.77;88.81;101550.19;5978436;28;20042;-66
2022/05/18 02:16:52;;;;;;;17.67;9.37;;;;;;;14.72;88.98;101565.00;5980248;28;20413;-66
2022/05/18 02:19:47;;;;;;;15.23;9.07;;;;;;;14.77;89.43;101565.38;5990717;28;20549;-66
2022/05/18 02:22:42;;;;;;;14.77;9.57;;;;;;;14.69;89.06;101559.94;5979508;28;20475;-66
2022/05/18 02:25:38;;;;;;;18.37;9.57;;;;;;;14.67;89.60;101562.78;5978931;28;20034;-66
2022/05/18 02:28:33;;;;;;;17.88;9.27;;;;;;;14.67;89.63;101554.78;5981645;28;20122;-66
2022/05/18 02:31:29;;;;;;;20.27;10.73;;;;;;;14.67;90.19;101556.59;5978406;28;20046;-66
2022/05/18 02:34:24;;;;;;;20.30;11.07;;;;;;;14.71;90.42;101557.97;5981362;28;20073;-66
2022/05/18 02:37:20;;;;;;;19.70;11.13;;;;;;;14.68;90.15;101551.09;5982138;28;20049;-66
2022/05/18 02:40:15;;;;;;;20.55;11.55;;;;;;;14.67;90.53;101556.59;5981582;28;20054;-67
2022/05/18 02:43:11;;;;;;;19.95;12.05;;;;;;;14.67;90.75;101556.59;5987341;28;20094;-66
2022/05/18 02:46:08;;;;;;;20.83;11.73;;;;;;;14.73;90.79;101558.66;5978736;28;20039;-65
2022/05/18 02:49:04;;;;;;;19.77;12.00;;;;;;;14.76;91.11;101569.03;5984694;28;20393;-66
2022/05/18 02:51:59;;;;;;;20.80;12.00;;;;;;;14.80;91.11;101565.91;5977284;28;20062;-66
2022/05/18 02:58:08;;;;;;;25.60;13.50;;;;;;;14.84;90.64;101563.75;5975953;29;20035;-67
2022/05/18 03:01:08;;;;;;;22.77;13.27;;;;;;;14.79;90.72;101568.72;5977724;28;20031;-66
2022/05/18 03:04:03;;;;;;;23.27;13.57;;;;;;;14.84;91.13;101572.63;5980045;28;20033;-66
2022/05/18 03:06:59;;;;;;;24.45;13.80;;;;;;;14.82;91.56;101565.75;5978368;28;20035;-65
2022/05/18 03:09:54;;;;;;;20.33;12.95;;;;;;;14.94;91.31;101580.56;5978573;28;20037;-66
2022/05/18 03:12:50;;;;;;;23.13;13.13;;;;;;;14.97;91.10;101574.06;5982956;28;20105;-67
2022/05/18 03:15:47;;;;;;;21.17;13.13;;;;;;;15.05;91.05;101575.00;5976188;28;20065;-66
2022/05/18 03:18:42;;;;;;;20.92;13.32;;;;;;;15.04;90.94;101575.97;5979367;28;20403;-66
2022/05/18 03:24:51;;;;;;;23.42;12.82;;;;;;;14.99;90.97;101585.44;5978021;28;20039;-65
2022/05/18 03:27:46;;;;;;;21.20;12.63;;;;;;;15.11;89.98;101579.69;5943913;28;1023421;-66
2022/05/18 03:30:42;;;;;;;26.80;13.43;;;;;;;15.09;89.99;101581.69;5978595;28;20047;-66
2022/05/18 03:33:38;;;;;;;20.57;13.43;;;;;;;15.21;90.50;101593.84;5987064;28;20372;-66
2022/05/18 03:36:34;;;;;;;21.75;12.35;;;;;;;15.19;89.57;101595.78;5986990;28;20038;-66
2022/05/18 03:39:29;;;;;;;22.67;13.75;;;;;;;15.19;89.71;101594.97;5979241;28;20086;-66
2022/05/18 03:42:25;;;;;;;23.92;12.98;;;;;;;15.24;89.88;101582.00;5978219;28;20106;-66
2022/05/18 03:45:20;;;;;;;23.70;14.32;;;;;;;15.19;89.54;101593.13;5985097;28;20034;-66
2022/05/18 03:48:17;;;;;;;22.27;12.57;;;;;;;15.18;89.81;101590.63;5978913;28;20115;-66
2022/05/18 03:51:15;;;;;;;21.00;13.27;;;;;;;15.15;89.88;101591.78;5978628;28;20034;-66
2022/05/18 03:54:11;;;;;;;21.77;12.93;;;;;;;15.25;89.94;101592.50;5979159;28;20043;-67
2022/05/18 03:57:08;;;;;;;21.80;12.60;;;;;;;15.30;89.65;101587.53;5982126;28;20040;-66
2022/05/18 04:00:05;;;;;;;22.83;13.20;;;;;;;15.30;89.11;101574.19;5977932;28;20030;-66
2022/05/18 04:03:01;;;;;;;22.25;13.50;;;;;;;15.31;89.15;101575.88;5978473;28;20034;-66
2022/05/18 04:05:56;;;;;;;23.27;13.45;;;;;;;15.25;89.52;101573.81;5980477;28;20038;-66
2022/05/18 04:08:53;;;;;;;23.70;14.00;;;;;;;15.31;89.55;101591.91;5978682;28;20063;-66
2022/05/18 04:11:49;;;;;;;24.10;13.18;;;;;;;15.38;89.35;101598.28;5977371;28;20040;-65
2022/05/18 04:14:44;;;;;;;20.48;12.27;;;;;;;15.49;89.41;101595.41;5981120;28;20043;-66
2022/05/18 04:17:39;;;;;;;21.73;14.50;;;;;;;15.36;88.92;101581.56;5978310;28;20183;-65
2022/05/18 04:20:34;;;;;;;26.50;14.03;;;;;;;15.43;88.89;101598.69;5978323;28;20043;-66
2022/05/18 04:23:30;;;;;;;22.40;13.00;;;;;;;15.40;88.88;101603.50;5978589;28;20078;-66
2022/05/18 04:26:25;;;;;;;25.37;13.63;;;;;;;15.37;88.77;101593.13;5978434;28;20054;-66
2022/05/18 04:29:20;;;;;;;24.30;13.83;;;;;;;15.47;88.89;101599.22;5981411;28;20305;-66
2022/05/18 04:32:16;;;;;;;22.67;14.30;;;;;;;15.57;88.27;101607.16;5982684;28;20757;-66
2022/05/18 04:35:14;;;;;;;24.93;14.47;;;;;;;15.56;88.94;101609.00;5989801;28;20059;-66
2022/05/18 04:38:09;;;;;;;23.70;15.05;;;;;;;15.59;88.55;101605.16;5986156;28;20039;-66
2022/05/18 04:41:04;;;;;;;25.87;15.23;;;;;;;15.59;88.82;101610.53;5981760;28;20053;-66
2022/05/18 04:43:59;;;;;;;28.40;16.20;;;;;;;15.52;89.02;101604.13;5985164;28;20035;-67
2022/05/18 04:46:56;;;;;;;26.27;16.00;;;;;;;15.46;88.87;101611.75;5982072;28;20043;-67
2022/05/18 04:49:52;;;;;;;26.05;15.70;;;;;;;15.57;88.89;101617.88;5982437;28;20062;-66
2022/05/18 04:52:47;;;;;;;26.65;15.63;;;;;;;15.53;88.96;101616.47;5979827;28;20035;-66
2022/05/18 04:55:43;;;;;;;29.58;17.98;;;;;;;15.47;89.20;101623.28;5981924;28;20499;-66
2022/05/18 04:58:39;;;;;;;27.42;15.52;;;;;;;15.59;88.89;101626.56;5969305;28;20023;-65
2022/05/18 05:01:34;;;;;;;26.25;16.08;;;;;;;15.61;88.72;101627.25;5979157;28;20751;-65
2022/05/18 05:04:29;;;;;;;26.53;16.77;;;;;;;15.60;88.90;101620.22;5982192;28;20364;-66
2022/05/18 05:07:25;;;;;;;27.00;15.52;;;;;;;15.67;88.67;101626.63;5981987;28;20078;-66
2022/05/18 05:10:21;;;;;;;24.37;14.73;;;;;;;15.68;88.58;101625.63;5980022;28;20046;-66
2022/05/18 05:13:17;;;;;;;28.50;17.48;;;;;;;15.72;88.32;101627.81;5984554;28;20403;-66
2022/05/18 05:16:12;;;;;;;28.02;15.52;;;;;;;15.81;88.28;101636.75;5982647;28;20563;-66
2022/05/18 05:19:07;;;;;;;28.63;17.23;;;;;;;15.85;87.57;101628.25;5981638;28;20031;-66
2022/05/18 05:22:04;;;;;;;26.90;16.45;;;;;;;15.90;87.51;101630.44;5981663;28;20027;-66
2022/05/18 05:25:00;;;;;;;30.33;16.27;;;;;;;15.91;87.75;101635.66;5977667;28;20027;-66
2022/05/18 05:27:55;;;;;;;31.27;18.70;;;;;;;15.86;87.51;101629.09;5980843;28;20035;-66
2022/05/18 05:30:51;;;;;;;30.48;17.42;;;;;;;15.85;87.82;101633.59;5980546;28;20113;-66
2022/05/18 05:33:47;;;;;;;30.60;16.92;;;;;;;15.86;87.53;101634.44;5979948;28;20154;-66
2022/05/18 05:36:42;;;;;;;26.42;16.13;;;;;;;16.03;87.42;101636.22;5981168;28;20031;-65
2022/05/18 05:39:37;;;;;;;25.83;16.30;;;;;;;16.08;86.72;101628.56;5980420;28;20023;-66
2022/05/18 05:42:33;;;;;;;27.00;15.43;;;;;;;16.15;86.29;101637.59;5980141;28;20363;-65
2022/05/18 05:45:28;;;;;;;23.50;14.97;;;;;;;16.21;86.39;101642.34;5980415;28;20031;-66
2022/05/18 05:48:24;;;;;;;29.90;16.87;;;;;;;16.16;85.82;101628.59;5979385;28;20049;-66
2022/05/18 05:51:20;;;;;;;31.92;16.65;;;;;;;16.17;86.38;101638.28;5977966;28;20105;-66
2022/05/18 05:54:15;;;;;;;26.35;16.02;;;;;;;16.27;85.66;101631.00;5980225;28;20055;-66
2022/05/18 05:57:11;;;;;;;31.00;17.33;;;;;;;16.59;84.95;101639.19;5980391;28;20529;-66
2022/05/18 06:00:07;;;;;;;24.50;14.25;;;;;;;16.81;83.87;101626.19;5977289;28;20548;-67
2022/05/18 06:03:03;;;;;;;22.63;13.55;;;;;;;16.95;82.90;101614.81;5980245;28;20086;-67
2022/05/18 06:05:58;;;;;;;25.10;14.30;;;;;;;17.37;81.75;101623.56;5979092;28;20039;-67
2022/05/18 06:08:53;;;;;;;23.40;14.70;;;;;;;17.24;81.77;101628.59;5979909;28;20031;-66
2022/05/18 06:11:50;;;;;;;21.10;13.70;;;;;;;17.70;79.52;101619.88;5978405;28;20288;-66
2022/05/18 06:14:45;;;;;;;21.00;14.07;;;;;;;17.65;80.02;101622.25;5979712;28;20051;-66
2022/05/18 06:17:41;;;;;;;21.80;14.68;;;;;;;17.81;78.94;101627.59;5980550;28;20039;-66
2022/05/18 06:20:36;;;;;;;20.73;13.37;;;;;;;17.70;79.53;101625.25;5979378;28;20058;-66
2022/05/18 06:23:32;;;;;;;24.73;14.88;;;;;;;17.69;79.89;101628.13;5980179;28;20063;-65
2022/05/18 06:26:27;;;;;;;23.43;14.93;;;;;;;18.02;78.31;101628.91;5982298;28;20382;-66
2022/05/18 06:29:22;;;;;;;20.00;13.15;;;;;;;18.26;77.13;101635.00;5978223;28;20111;-67
2022/05/18 06:32:18;;;;;;;21.10;14.13;;;;;;;18.05;77.67;101628.53;5979176;28;20543;-66
2022/05/18 06:35:13;;;;;;;22.85;13.77;;;;;;;18.25;76.72;101624.44;5979097;28;20031;-66
2022/05/18 06:38:11;;;;;;;21.67;13.35;;;;;;;18.69;74.97;101639.06;5983447;28;20047;-65
2022/05/18 06:41:21;;;;;;;22.60;13.23;;;;;;;18.66;75.21;101631.34;5979350;28;20042;-67
2022/05/18 06:44:17;;;;;;;21.70;12.57;;;;;;;18.80;74.55;101646.72;5981934;28;20043;-66
2022/05/18 06:47:12;;;;;;;21.45;12.45;;;;;;;18.64;75.38;101630.69;5979676;28;20069;-66
2022/05/18 06:50:09;;;;;;;22.10;13.27;;;;;;;18.48;75.26;101635.31;5978505;28;20039;-67
2022/05/18 06:53:04;;;;;;;21.33;13.48;;;;;;;18.44;76.03;101640.16;5979960;28;20162;-66
2022/05/18 06:55:59;;;;;;;19.88;12.45;;;;;;;18.70;75.29;101646.09;5977731;28;20395;-67
2022/05/18 06:58:55;;;;;;;19.13;12.18;;;;;;;18.94;74.38;101637.88;5971972;28;20059;-66
2022/05/18 07:01:51;;;;;;;23.60;11.57;;;;;;;19.56;72.76;101635.09;5977394;28;20859;-66
2022/05/18 07:04:46;;;;;;;15.70;9.73;;;;;;;19.93;71.21;101653.91;5978963;28;20031;-66
2022/05/18 07:07:41;;;;;;;17.40;9.88;;;;;;;20.60;68.80;101648.47;5979294;28;20089;-67
2022/05/18 07:10:37;;;;;;;17.50;10.67;;;;;;;21.32;65.45;101644.72;5978362;28;20035;-66
2022/05/18 07:13:33;;;;;;;17.27;10.02;;;;;;;21.83;64.28;101644.50;5979365;28;20098;-66
2022/05/18 07:16:29;;;;;;;17.63;10.82;;;;;;;21.24;65.02;101641.31;5978333;28;20487;-66
2022/05/18 07:19:25;;;;;;;15.43;10.00;;;;;;;20.78;66.22;101662.38;5981536;28;20031;-66
2022/05/18 07:22:20;;;;;;;12.95;9.32;;;;;;;20.54;66.61;101660.84;5979461;28;20046;-65
2022/05/18 07:25:15;;;;;;;15.83;9.33;;;;;;;20.67;66.63;101655.59;5978803;28;20112;-67
2022/05/18 07:28:10;;;;;;;14.87;9.63;;;;;;;20.76;65.70;101656.34;5978976;28;20039;-67
2022/05/18 07:31:07;;;;;;;14.83;8.93;;;;;;;21.42;64.11;101643.53;5979044;28;20039;-67
2022/05/18 07:34:03;;;;;;;14.13;8.15;;;;;;;21.91;63.14;101639.00;5979194;28;20035;-66
2022/05/18 07:36:58;;;;;;;12.80;8.23;;;;;;;21.75;63.02;101639.25;5978841;28;20478;-66
2022/05/18 07:39:53;;;;;;;13.33;7.90;;;;;;;22.29;62.50;101642.13;5985572;28;20094;-66
2022/05/18 07:42:49;;;;;;;12.83;7.93;;;;;;;22.35;59.94;101628.66;5986856;28;20039;-66
2022/05/18 07:45:45;;;;;;;12.15;8.40;;;;;;;22.48;59.55;101644.94;5983035;28;20459;-66
2022/05/18 07:48:41;;;;;;;14.23;8.82;;;;;;;22.27;60.11;101639.66;5978476;28;20464;-66
2022/05/18 07:51:36;;;;;;;14.52;8.40;;;;;;;22.40;60.97;101650.53;5979231;28;20083;-66
2022/05/18 07:54:32;;;;;;;12.85;7.80;;;;;;;22.70;59.72;101655.66;5976268;28;20043;-66
2022/05/18 07:57:27;;;;;;;14.02;7.93;;;;;;;22.54;59.57;101652.25;5975868;28;20094;-67
2022/05/18 08:00:24;;;;;;;13.80;7.63;;;;;;;22.24;60.84;101661.66;5979032;28;20039;-66
2022/05/18 08:03:19;;;;;;;12.27;7.85;;;;;;;22.05;60.49;101651.56;5966498;28;20035;-66
2022/05/18 08:06:15;;;;;;;13.75;8.27;;;;;;;22.02;61.13;101651.97;5983177;28;20035;-66
2022/05/18 08:09:10;;;;;;;12.48;6.88;;;;;;;22.45;60.46;101645.34;5983731;28;20118;-66
2022/05/18 08:15:20;;;;;;;9.63;6.60;;;;;;;23.12;58.06;101650.00;5980880;28;20395;-66
2022/05/18 08:18:16;;;;;;;10.25;5.05;;;;;;;23.32;54.18;101650.84;5981984;28;20062;-67
2022/05/18 08:21:12;;;;;;;14.43;6.50;;;;;;;22.79;55.09;101646.34;5990344;28;20478;-67
2022/05/18 08:24:08;;;;;;;9.27;5.50;;;;;;;22.86;56.25;101647.19;5987555;28;20035;-66
2022/05/18 08:27:05;;;;;;;10.85;6.22;;;;;;;22.87;56.68;101651.56;5983745;28;20086;-66
2022/05/18 08:30:05;;;;;;;10.35;5.40;;;;;;;23.33;55.64;101652.50;5995520;28;20471;-67
2022/05/18 08:33:01;;;;;;;11.00;6.88;;;;;;;23.30;55.16;101642.09;5982681;28;20117;-66
2022/05/18 08:35:57;;;;;;;11.43;5.72;;;;;;;23.57;55.44;101649.22;5990013;28;20046;-67
2022/05/18 08:38:54;;;;;;;8.13;5.17;;;;;;;23.38;56.07;101643.78;5984074;28;20047;-66
2022/05/18 08:41:49;;;;;;;13.82;7.22;;;;;;;23.29;55.21;101642.31;5986267;28;20112;-67
2022/05/18 08:44:45;;;;;;;12.30;5.60;;;;;;;23.28;54.77;101638.75;5984314;28;20119;-67
2022/05/18 08:47:43;;;;;;;7.97;5.53;;;;;;;23.86;53.72;101639.00;5982965;28;20039;-67
2022/05/18 08:50:39;;;;;;;12.95;6.10;;;;;;;23.98;53.84;101640.00;5981089;28;20491;-67
2022/05/18 08:53:38;;;;;;;9.30;5.13;;;;;;;24.27;53.18;101644.97;5979836;28;20142;-67
2022/05/18 08:56:38;;;;;;;9.45;5.10;;;;;;;23.85;53.54;101638.16;5987276;28;20047;-66
2022/05/18 08:59:36;;;;;;;10.32;5.78;;;;;;;23.87;53.73;101637.94;5979499;28;20546;-66
2022/05/18 09:02:33;;;;;;;11.15;6.63;;;;;;;23.83;54.07;101631.28;5979521;28;20561;-67
2022/05/18 09:05:48;;;;;;;7.40;4.97;;;;;;;23.97;52.83;101644.59;5981417;28;20042;-66
2022/05/18 09:10:12;;;;;;;9.50;4.93;;;;;;;24.05;53.24;101630.00;5975591;28;20039;-66
2022/05/18 09:12:05;;;;;;;8.93;4.93;;;;;;;24.52;52.12;101629.66;5981693;28;20059;-66
2022/05/18 09:15:03;;;;;;;9.85;4.80;;;;;;;24.94;51.83;101624.69;5980585;28;20081;-66
2022/05/18 09:18:02;;;;;;;11.80;4.68;;;;;;;24.83;51.18;101616.22;5980561;28;20090;-67
2022/05/18 09:21:10;;;;;;;9.63;4.18;;;;;;;24.69;51.28;101620.00;5979854;28;20043;-66
2022/05/18 09:24:36;;;;;;;6.95;4.15;;;;;;;24.34;51.66;101618.69;5979866;29;20027;-66
2022/05/18 09:27:50;;;;;;;8.73;4.55;;;;;;;24.86;49.96;101620.38;5947015;28;20502;-66
2022/05/18 09:31:06;;;;;;;7.63;4.22;;;;;;;24.93;50.05;101623.03;5980422;28;20702;-66
2022/05/18 09:34:20;;;;;;;8.00;5.03;;;;;;;24.75;50.72;101621.84;5979375;28;20039;-67
2022/05/18 09:37:29;;;;;;;9.23;5.35;;;;;;;25.30;49.83;101616.72;5978013;28;20032;-66
2022/05/18 09:40:27;;;;;;;8.68;4.53;;;;;;;25.04;49.12;101606.88;5977238;29;20047;-66
2022/05/18 09:43:55;;;;;;;7.80;3.90;;;;;;;24.83;49.46;101608.06;5980691;28;20111;-66
2022/05/18 09:46:51;;;;;;;7.78;3.60;;;;;;;25.14;49.46;101607.22;5977314;28;20027;-66
2022/05/18 09:49:51;;;;;;;6.63;3.25;;;;;;;25.62;47.23;101610.22;5975016;28;20074;-67
2022/05/18 09:52:47;;;;;;;6.60;3.42;;;;;;;25.75;48.53;101606.53;5978408;29;20043;-67
2022/05/18 09:55:45;;;;;;;8.43;3.42;;;;;;;25.63;47.39;101598.28;5979484;28;20038;-66
2022/05/18 09:58:43;;;;;;;7.97;3.25;;;;;;;25.91;47.54;101593.19;5968407;28;20093;-67
2022/05/18 10:08:13;;;;;;;7.15;2.92;;;;;;;25.64;47.79;101597.22;5979883;28;20035;-67
2022/05/18 10:11:15;;;;;;;6.15;3.15;;;;;;;25.59;47.60;101601.66;5979472;28;20035;-67
2022/05/18 10:14:17;;;;;;;6.35;2.92;;;;;;;25.83;46.97;101598.94;5980688;28;20106;-66
2022/05/18 10:17:13;;;;;;;5.80;2.92;;;;;;;26.00;45.64;101583.69;5987336;28;20062;-67
2022/05/18 10:20:19;;;;;;;8.68;3.05;;;;;;;26.21;45.36;101581.59;5982832;28;20063;-67
2022/05/18 10:23:34;;;;;;;5.35;2.47;;;;;;;26.50;45.27;101584.34;5981439;28;20035;-67
2022/05/18 10:26:38;;;;;;;5.88;2.33;;;;;;;26.60;44.56;101584.66;5979201;28;20039;-67
2022/05/18 10:29:33;;;;;;;6.25;2.13;;;;;;;26.92;42.47;101582.53;5978169;28;20063;-67
2022/05/18 10:32:31;;;;;;;6.10;1.80;;;;;;;27.26;40.19;101582.88;5979547;28;20032;-67
2022/05/18 10:35:49;;;;;;;5.43;1.80;;;;;;;26.89;39.62;101576.72;5980513;28;20770;-68
2022/05/18 10:38:51;;;;;;;6.22;1.77;;;;;;;27.08;40.37;101584.59;5987212;28;20082;-67
2022/05/18 10:41:48;;;;;;;5.43;2.13;;;;;;;26.83;41.30;101585.81;5984470;28;20035;-66
2022/05/18 10:44:44;;;;;;;5.82;1.90;;;;;;;27.13;41.22;101587.44;5986391;28;20039;-67
2022/05/18 10:47:47;;;;;;;10.18;1.80;;;;;;;27.15;40.49;101585.31;5988197;28;20050;-67
2022/05/18 10:50:45;;;;;;;5.35;2.33;;;;;;;27.03;41.25;101579.03;5977108;28;20125;-67
2022/05/18 10:53:41;;;;;;;4.75;2.30;;;;;;;27.26;39.99;101580.94;5976823;28;20102;-67
2022/05/18 10:56:37;;;;;;;5.93;2.08;;;;;;;27.12;40.82;101580.34;5976754;28;20085;-67
2022/05/18 10:59:48;;;;;;;4.22;2.10;;;;;;;26.58;41.42;101559.53;5977022;28;20514;-67
2022/05/18 11:02:58;;;;;;;4.82;2.25;;;;;;;27.19;41.85;101572.91;5976820;28;20058;-67
2022/05/18 11:06:23;;;;;;;4.72;2.17;;;;;;;27.62;40.90;101563.59;5989231;28;20474;-67
2022/05/18 11:09:22;;;;;;;5.47;2.33;;;;;;;27.15;41.84;101560.78;5975802;28;20406;-66
2022/05/18 11:12:42;;;;;;;6.40;2.65;;;;;;;27.19;42.43;101559.28;5978808;28;20383;-67
2022/05/18 11:15:45;;;;;;;5.72;2.40;;;;;;;27.23;42.21;101547.91;5970280;28;20031;-67
2022/05/18 11:19:05;;;;;;;7.25;2.25;;;;;;;27.78;41.06;101552.78;5977754;29;20070;-67
2022/05/18 11:22:05;;;;;;;7.05;2.40;;;;;;;27.41;41.22;101542.38;5976585;28;20035;-68
2022/05/18 11:25:15;;;;;;;6.07;2.58;;;;;;;27.01;41.52;101545.75;5986303;28;20490;-67
2022/05/18 11:28:38;;;;;;;7.72;2.63;;;;;;;27.56;40.91;101529.09;5968326;29;20360;-68
2022/05/18 11:31:53;;;;;;;3.97;2.22;;;;;;;27.41;39.98;101542.38;5979993;28;20078;-67
2022/05/18 11:35:07;;;;;;;3.75;2.35;;;;;;;27.99;39.73;101536.88;5967663;29;20610;-68
2022/05/18 11:38:27;;;;;;;5.28;2.17;;;;;;;27.50;40.15;101541.81;5983860;28;20115;-67
2022/05/18 11:41:49;;;;;;;4.85;2.30;;;;;;;28.17;39.16;101543.03;5981650;28;20035;-67
2022/05/18 11:45:05;;;;;;;4.32;2.05;;;;;;;28.60;38.97;101534.31;5980520;28;20121;-68
2022/05/18 11:48:19;;;;;;;5.28;2.17;;;;;;;28.49;40.37;101528.91;5976187;28;20118;-67
2022/05/18 11:51:30;;;;;;;7.35;2.42;;;;;;;28.63;38.21;101524.84;5981829;28;20042;-67
2022/05/18 11:55:03;;;;;;;5.07;2.63;;;;;;;28.65;38.23;101528.13;5978165;28;20440;-68
2022/05/18 11:58:10;;;;;;;4.35;2.47;;;;;;;28.90;37.95;101525.88;5979624;29;20031;-67
2022/05/18 12:01:13;;;;;;;4.32;1.90;;;;;;;28.84;36.92;101524.13;5982238;28;20042;-68
2022/05/18 12:04:24;;;;;;;3.63;1.92;;;;;;;29.35;36.15;101517.63;5981666;28;20035;-68
2022/05/18 12:07:45;;;;;;;5.10;2.47;;;;;;;28.68;37.64;101530.38;5975303;29;20040;-67
2022/05/18 12:10:50;;;;;;;4.55;2.55;;;;;;;29.67;36.59;101515.06;5982758;28;20035;-68
2022/05/18 12:13:58;;;;;;;4.95;2.60;;;;;;;29.18;37.24;101512.13;5981689;29;20488;-68
2022/05/18 12:17:14;;;;;;;6.80;2.78;;;;;;;29.34;37.57;101513.22;5979061;28;20027;-68
2022/05/18 12:20:33;;;;;;;4.97;2.53;;;;;;;29.38;35.01;101512.47;5985032;28;20466;-68
2022/05/18 12:23:30;;;;;;;3.65;2.00;;;;;;;29.15;35.71;101489.94;5982419;28;20526;-67
2022/05/18 12:26:26;;;;;;;5.40;2.50;;;;;;;28.51;37.48;101502.22;5992037;28;20038;-67
2022/05/18 12:29:25;;;;;;;6.78;2.22;;;;;;;28.84;36.96;101499.53;5981413;28;20130;-67
2022/05/18 12:32:21;;;;;;;4.28;2.30;;;;;;;29.16;37.20;101497.88;5980308;28;20046;-68
2022/05/18 12:35:42;;;;;;;6.03;2.30;;;;;;;29.44;35.13;101499.69;5982141;28;20027;-68
2022/05/18 12:38:57;;;;;;;4.68;2.20;;;;;;;29.33;36.45;101501.47;5966957;28;20054;-67
2022/05/18 12:41:58;;;;;;;3.65;2.05;;;;;;;29.30;36.33;101492.91;5982185;28;20106;-67
2022/05/18 12:44:55;;;;;;;3.50;2.50;;;;;;;29.01;36.50;101505.84;5981130;28;20412;-67
2022/05/18 12:48:06;;;;;;;5.78;2.50;;;;;;;29.01;37.07;101508.56;5981406;28;20034;-68
2022/05/18 12:51:27;;;;;;;4.43;2.40;;;;;;;29.21;36.74;101505.34;5980256;28;20043;-67
2022/05/18 12:54:31;;;;;;;4.57;2.30;;;;;;;29.90;35.54;101495.69;5981197;28;20031;-68
2022/05/18 12:57:39;;;;;;;4.53;2.35;;;;;;;28.66;37.96;101495.16;5964547;29;20027;-68
2022/05/18 13:00:56;;;;;;;3.47;2.08;;;;;;;29.40;37.45;101504.84;5980243;28;20027;-68
2022/05/18 13:03:58;;;;;;;4.80;2.92;;;;;;;29.59;35.19;101497.19;5981454;28;20043;-67
2022/05/18 13:06:56;;;;;;;6.22;2.50;;;;;;;29.19;36.09;101485.66;5980266;28;20039;-68
2022/05/18 13:10:25;;;;;;;6.68;2.50;;;;;;;29.00;36.77;101504.16;5981373;28;20043;-67
2022/05/18 13:13:25;;;;;;;10.35;2.58;;;;;;;28.85;36.87;101498.47;5968937;29;20376;-68
2022/05/18 13:16:38;;;;;;;5.55;2.35;;;;;;;29.08;37.10;101490.09;5982448;28;20043;-68
2022/05/18 13:19:35;;;;;;;8.15;2.60;;;;;;;28.82;37.43;101491.59;5981008;28;20042;-68
2022/05/18 13:22:41;;;;;;;3.75;1.95;;;;;;;29.75;36.62;101477.16;5977243;29;20043;-68
2022/05/18 13:25:40;;;;;;;4.57;2.10;;;;;;;29.57;35.49;101476.66;5980573;28;20038;-68
2022/05/18 13:28:36;;;;;;;6.80;2.28;;;;;;;29.60;36.02;101482.44;5979516;29;20074;-68
2022/05/18 13:31:31;;;;;;;3.85;2.58;;;;;;;29.62;36.26;101479.44;5979596;28;20038;-68
2022/05/18 13:34:54;;;;;;;7.50;2.33;;;;;;;29.76;34.84;101486.22;5979328;28;20032;-68
2022/05/18 13:38:04;;;;;;;7.70;4.25;;;;;;;29.56;35.75;101475.00;5981008;28;20303;-67
2022/05/18 13:41:06;;;;;;;4.80;1.90;;;;;;;29.42;35.37;101482.72;5980339;28;20042;-68
2022/05/18 13:44:04;;;;;;;7.22;2.03;;;;;;;28.89;36.15;101472.34;5980773;28;20050;-68
2022/05/18 13:47:01;;;;;;;3.67;2.55;;;;;;;28.62;36.61;101474.03;5979172;28;20382;-68
2022/05/18 13:50:01;;;;;;;3.33;2.10;;;;;;;29.18;35.83;101464.84;5981312;28;20031;-68
2022/05/18 13:52:59;;;;;;;4.47;2.33;;;;;;;29.00;36.61;101474.13;5980058;28;20035;-67
2022/05/18 13:55:57;;;;;;;5.20;2.20;;;;;;;30.15;34.85;101465.91;5980503;28;20063;-67
2022/05/18 13:58:56;;;;;;;4.88;2.40;;;;;;;30.07;34.49;101471.84;5980111;28;20031;-68
2022/05/18 14:01:55;;;;;;;4.75;2.40;;;;;;;28.88;36.32;101467.94;5970478;28;20039;-68